Time;durP1;ratioP1;P1;durP2;ratioP2;P2;SDS_P1;SDS_P2;PMS_P1;PMS_P2;Temp;Humidity;BMP_temperature;BMP_pressure;BME280_temperature;BME280_humidity;BME280_pressure;Samples;Min_cycle;Max_cycle;Signal;HPM_P1;HPM_P2
2020/12/20 00:00:54;;;;;;;10.07;3.00;;;;;;;;;;4925333;29;20205;-88
2020/12/20 00:03:19;;;;;;;7.78;2.92;;;;;;;;;;4917375;29;20379;-88
2020/12/20 00:05:45;;;;;;;7.88;2.70;;;;;;;;;;4920036;29;20042;-89
2020/12/20 00:08:10;;;;;;;10.20;3.03;;;;;;;;;;4937300;29;20031;-89
2020/12/20 00:10:35;;;;;;;8.40;2.83;;;;;;;;;;4919880;29;20058;-88
2020/12/20 00:13:01;;;;;;;9.40;3.13;;;;;;;;;;4937341;29;20027;-88
2020/12/20 00:15:26;;;;;;;7.90;2.60;;;;;;;;;;4919342;29;20114;-87
2020/12/20 00:17:52;;;;;;;6.32;2.60;;;;;;;;;;4936919;29;20036;-88
2020/12/20 00:20:17;;;;;;;7.05;2.45;;;;;;;;;;4936768;29;20426;-87
2020/12/20 00:22:43;;;;;;;7.65;2.90;;;;;;;;;;4919664;29;20106;-89
2020/12/20 00:25:08;;;;;;;5.45;2.70;;;;;;;;;;4919314;29;20035;-88
2020/12/20 00:27:33;;;;;;;5.85;2.70;;;;;;;;;;4937032;29;20030;-88
2020/12/20 00:29:58;;;;;;;8.52;2.20;;;;;;;;;;4919152;29;20165;-89
2020/12/20 00:32:23;;;;;;;12.52;2.80;;;;;;;;;;4919106;29;20020;-89
2020/12/20 00:34:49;;;;;;;7.68;2.45;;;;;;;;;;4919563;29;20027;-89
2020/12/20 00:37:14;;;;;;;8.43;2.75;;;;;;;;;;4936434;29;20420;-89
2020/12/20 00:39:39;;;;;;;12.63;2.92;;;;;;;;;;4919447;29;20027;-89
2020/12/20 00:42:05;;;;;;;8.75;2.90;;;;;;;;;;4919042;29;20028;-88
2020/12/20 00:44:31;;;;;;;7.72;2.40;;;;;;;;;;4919383;29;20039;-88
2020/12/20 00:46:57;;;;;;;6.80;2.28;;;;;;;;;;4936142;29;20432;-88
2020/12/20 00:49:23;;;;;;;11.15;3.65;;;;;;;;;;4936441;29;20102;-88
2020/12/20 00:51:48;;;;;;;8.52;2.40;;;;;;;;;;4918897;29;20063;-88
2020/12/20 00:54:13;;;;;;;7.47;2.80;;;;;;;;;;4919350;29;20028;-88
2020/12/20 00:56:38;;;;;;;7.10;2.88;;;;;;;;;;4915023;29;20032;-89
2020/12/20 00:59:04;;;;;;;11.73;2.83;;;;;;;;;;4911009;29;20372;-89
2020/12/20 01:01:29;;;;;;;6.43;2.42;;;;;;;;;;4918960;29;20119;-89
2020/12/20 01:03:54;;;;;;;11.80;2.80;;;;;;;;;;4918801;29;20039;-89
2020/12/20 01:06:20;;;;;;;7.75;2.75;;;;;;;;;;4905787;29;20087;-88
2020/12/20 01:08:46;;;;;;;9.30;2.65;;;;;;;;;;4936382;29;20022;-89
2020/12/20 01:11:11;;;;;;;8.32;3.03;;;;;;;;;;4919239;29;20104;-89
2020/12/20 01:13:36;;;;;;;10.68;2.83;;;;;;;;;;4936056;29;20016;-89
2020/12/20 01:16:02;;;;;;;11.60;2.85;;;;;;;;;;4927954;29;20023;-89
2020/12/20 01:18:28;;;;;;;9.82;2.90;;;;;;;;;;4936162;29;20463;-89
2020/12/20 01:20:53;;;;;;;12.05;2.88;;;;;;;;;;4911015;29;20020;-89
2020/12/20 01:23:18;;;;;;;7.28;3.00;;;;;;;;;;4929342;29;20055;-88
2020/12/20 01:25:43;;;;;;;9.73;3.53;;;;;;;;;;4918202;29;20732;-89
2020/12/20 01:28:08;;;;;;;10.95;3.40;;;;;;;;;;4919039;29;20031;-88
2020/12/20 01:30:34;;;;;;;8.30;3.17;;;;;;;;;;4904844;29;20027;-89
2020/12/20 01:32:59;;;;;;;14.93;2.78;;;;;;;;;;4935953;29;20031;-89
2020/12/20 01:35:24;;;;;;;9.57;2.80;;;;;;;;;;4918212;29;20050;-87
2020/12/20 01:37:49;;;;;;;7.68;2.60;;;;;;;;;;4919027;29;20027;-89
2020/12/20 01:40:15;;;;;;;10.68;2.95;;;;;;;;;;4918791;29;20031;-89
2020/12/20 01:42:40;;;;;;;9.63;2.90;;;;;;;;;;4935657;29;20129;-89
2020/12/20 01:45:05;;;;;;;7.30;2.80;;;;;;;;;;4918018;29;20071;-89
2020/12/20 01:47:31;;;;;;;9.90;2.40;;;;;;;;;;4917946;29;20534;-89
2020/12/20 01:49:56;;;;;;;9.40;2.88;;;;;;;;;;4909795;29;20039;-88
2020/12/20 01:52:22;;;;;;;13.07;2.83;;;;;;;;;;4913975;29;21068;-88
2020/12/20 01:54:49;;;;;;;8.88;2.65;;;;;;;;;;4917715;29;20021;-88
2020/12/20 01:57:15;;;;;;;9.88;2.55;;;;;;;;;;4934896;29;20534;-88
2020/12/20 01:59:41;;;;;;;9.20;2.78;;;;;;;;;;4918261;29;20019;-89
2020/12/20 02:02:06;;;;;;;5.97;2.60;;;;;;;;;;4917785;29;20027;-88
2020/12/20 02:04:32;;;;;;;6.90;2.88;;;;;;;;;;4934540;29;20031;-87
2020/12/20 02:06:57;;;;;;;6.53;2.45;;;;;;;;;;4918107;29;20027;-88
2020/12/20 02:09:22;;;;;;;8.75;3.03;;;;;;;;;;4934855;29;20043;-89
2020/12/20 02:11:47;;;;;;;9.27;3.08;;;;;;;;;;4931713;29;20110;-88
2020/12/20 02:14:12;;;;;;;10.73;2.75;;;;;;;;;;4925062;29;20470;-88
2020/12/20 02:16:37;;;;;;;13.23;2.72;;;;;;;;;;4917528;29;20075;-89
2020/12/20 02:19:03;;;;;;;7.78;2.30;;;;;;;;;;4934918;29;20095;-88
2020/12/20 02:21:28;;;;;;;10.25;2.70;;;;;;;;;;4911334;29;20019;-89
2020/12/20 02:23:53;;;;;;;10.35;2.88;;;;;;;;;;4935033;29;20518;-88
2020/12/20 02:26:20;;;;;;;13.20;2.58;;;;;;;;;;4917599;29;20403;-88
2020/12/20 02:28:49;;;;;;;8.13;2.47;;;;;;;;;;4917886;29;20028;-88
2020/12/20 02:31:14;;;;;;;9.45;2.50;;;;;;;;;;4917464;29;20020;-88
2020/12/20 02:33:39;;;;;;;6.82;2.60;;;;;;;;;;4934630;29;20012;-87
2020/12/20 02:36:04;;;;;;;8.30;2.38;;;;;;;;;;4917426;29;20016;-87
2020/12/20 02:38:30;;;;;;;13.10;2.60;;;;;;;;;;4917705;29;20494;-86
2020/12/20 02:40:56;;;;;;;11.20;2.50;;;;;;;;;;4934726;29;20012;-89
2020/12/20 02:43:21;;;;;;;10.68;2.53;;;;;;;;;;4917676;29;20024;-89
2020/12/20 02:45:46;;;;;;;11.82;2.47;;;;;;;;;;4903492;29;20012;-89
2020/12/20 02:48:12;;;;;;;9.40;2.38;;;;;;;;;;4909271;29;20115;-87
2020/12/20 02:50:37;;;;;;;17.45;2.80;;;;;;;;;;4915742;29;20024;-89
2020/12/20 02:53:02;;;;;;;8.77;2.58;;;;;;;;;;4917824;29;20709;-88
2020/12/20 02:55:28;;;;;;;6.95;2.60;;;;;;;;;;4934811;29;20016;-88
2020/12/20 02:57:53;;;;;;;6.65;2.15;;;;;;;;;;4934539;29;20407;-89
2020/12/20 03:00:19;;;;;;;7.40;2.58;;;;;;;;;;4944917;29;20040;-89
2020/12/20 03:02:44;;;;;;;14.32;2.83;;;;;;;;;;4933477;29;20019;-88
2020/12/20 03:05:09;;;;;;;10.38;2.40;;;;;;;;;;4918789;29;20047;-90
2020/12/20 03:07:34;;;;;;;12.45;2.97;;;;;;;;;;4938382;29;20027;-89
2020/12/20 03:10:00;;;;;;;17.58;3.45;;;;;;;;;;4939943;29;20028;-89
2020/12/20 03:12:25;;;;;;;7.03;2.38;;;;;;;;;;4938340;29;20054;-89
2020/12/20 03:14:50;;;;;;;18.17;2.80;;;;;;;;;;4937910;29;20049;-89
2020/12/20 03:17:15;;;;;;;11.77;2.92;;;;;;;;;;4920626;29;20426;-89
2020/12/20 03:19:40;;;;;;;16.73;2.95;;;;;;;;;;4915891;29;20025;-89
2020/12/20 03:22:05;;;;;;;13.10;3.10;;;;;;;;;;4902436;29;20047;-88
2020/12/20 03:24:31;;;;;;;11.73;2.50;;;;;;;;;;4917969;29;20466;-88
2020/12/20 03:26:56;;;;;;;7.82;2.42;;;;;;;;;;4920555;29;20363;-88
2020/12/20 03:29:21;;;;;;;12.50;2.72;;;;;;;;;;4921001;29;20024;-88
2020/12/20 03:31:46;;;;;;;12.15;2.25;;;;;;;;;;4920253;29;20047;-89
2020/12/20 03:34:11;;;;;;;10.50;2.10;;;;;;;;;;4920724;29;20034;-87
2020/12/20 03:36:37;;;;;;;7.28;2.20;;;;;;;;;;4903486;29;20034;-88
2020/12/20 03:39:02;;;;;;;12.25;2.50;;;;;;;;;;4902123;29;20038;-89
2020/12/20 03:41:27;;;;;;;16.65;3.03;;;;;;;;;;4903566;29;20020;-89
2020/12/20 03:43:52;;;;;;;19.67;2.92;;;;;;;;;;4920282;29;20355;-88
2020/12/20 03:46:18;;;;;;;12.50;3.00;;;;;;;;;;4920494;29;20034;-88
2020/12/20 03:48:43;;;;;;;9.65;2.47;;;;;;;;;;4920426;29;20030;-88
2020/12/20 03:51:08;;;;;;;15.85;2.83;;;;;;;;;;4937556;29;20436;-89
2020/12/20 03:53:33;;;;;;;15.27;2.53;;;;;;;;;;4920810;29;20185;-89
2020/12/20 03:55:58;;;;;;;13.93;2.35;;;;;;;;;;4937447;29;20483;-89
2020/12/20 03:58:24;;;;;;;10.55;2.15;;;;;;;;;;4937433;29;20023;-89
2020/12/20 04:00:49;;;;;;;6.53;2.20;;;;;;;;;;4919778;29;20031;-89
2020/12/20 04:03:14;;;;;;;16.63;2.47;;;;;;;;;;4920687;29;20439;-86
2020/12/20 04:05:39;;;;;;;8.77;1.90;;;;;;;;;;4937279;29;20091;-89
2020/12/20 04:08:05;;;;;;;11.93;2.13;;;;;;;;;;4920070;29;20054;-89
2020/12/20 04:10:30;;;;;;;16.02;2.53;;;;;;;;;;4920099;29;20024;-90
2020/12/20 04:12:55;;;;;;;8.30;2.40;;;;;;;;;;4937441;29;20028;-89
2020/12/20 04:15:21;;;;;;;11.48;2.35;;;;;;;;;;4920031;29;20042;-89
2020/12/20 04:17:46;;;;;;;14.07;2.78;;;;;;;;;;4919004;29;20119;-88
2020/12/20 04:20:11;;;;;;;9.73;2.28;;;;;;;;;;4908936;29;20111;-89
2020/12/20 04:22:36;;;;;;;11.30;2.17;;;;;;;;;;4918330;29;20083;-89
2020/12/20 04:25:01;;;;;;;9.40;2.40;;;;;;;;;;4937143;29;20020;-89
2020/12/20 04:27:27;;;;;;;15.88;2.58;;;;;;;;;;4920102;29;20024;-89
2020/12/20 04:29:52;;;;;;;14.63;2.55;;;;;;;;;;4919270;29;20047;-89
2020/12/20 04:32:18;;;;;;;12.73;2.20;;;;;;;;;;4936516;29;20023;-89
2020/12/20 04:34:43;;;;;;;12.10;2.30;;;;;;;;;;4936687;29;20023;-89
2020/12/20 04:37:08;;;;;;;15.93;2.20;;;;;;;;;;4919952;29;20031;-88
2020/12/20 04:39:33;;;;;;;6.60;2.17;;;;;;;;;;4919409;29;20455;-87
2020/12/20 04:41:59;;;;;;;11.65;2.13;;;;;;;;;;4936603;29;20106;-89
2020/12/20 04:44:25;;;;;;;15.82;2.20;;;;;;;;;;4919180;29;20019;-88
2020/12/20 04:46:50;;;;;;;16.23;2.65;;;;;;;;;;4919253;29;20118;-88
2020/12/20 04:49:16;;;;;;;14.48;2.92;;;;;;;;;;4936239;29;20019;-89
2020/12/20 04:51:41;;;;;;;8.02;1.88;;;;;;;;;;4936384;29;20393;-89
2020/12/20 04:54:07;;;;;;;10.98;2.40;;;;;;;;;;4919467;29;20486;-88
2020/12/20 04:56:36;;;;;;;12.52;2.67;;;;;;;;;;4919355;29;20062;-89
2020/12/20 04:59:01;;;;;;;7.72;2.47;;;;;;;;;;4936494;29;20050;-88
2020/12/20 05:01:26;;;;;;;12.20;2.45;;;;;;;;;;4918796;29;20028;-88
2020/12/20 05:03:52;;;;;;;15.15;3.08;;;;;;;;;;4918727;29;20044;-88
2020/12/20 05:06:17;;;;;;;14.13;2.58;;;;;;;;;;4918972;29;20055;-89
2020/12/20 05:08:42;;;;;;;7.28;2.38;;;;;;;;;;4935285;29;20062;-89
2020/12/20 05:11:07;;;;;;;14.25;2.40;;;;;;;;;;4918661;29;20479;-89
2020/12/20 05:13:39;;;;;;;11.23;2.38;;;;;;;;;;4905997;29;20024;-89
2020/12/20 05:16:05;;;;;;;12.45;2.22;;;;;;;;;;4922677;29;20020;-89
2020/12/20 05:18:30;;;;;;;10.35;2.63;;;;;;;;;;4936088;29;20039;-89
2020/12/20 05:20:55;;;;;;;12.13;2.15;;;;;;;;;;4936117;29;20789;-89
2020/12/20 05:23:20;;;;;;;10.40;2.97;;;;;;;;;;4918680;29;20573;-89
2020/12/20 05:25:45;;;;;;;14.55;3.25;;;;;;;;;;4918829;29;20020;-89
2020/12/20 05:28:18;;;;;;;20.80;3.67;;;;;;;;;;4930227;29;20391;-89
2020/12/20 05:30:44;;;;;;;17.85;2.72;;;;;;;;;;4917676;29;20111;-88
2020/12/20 05:33:22;;;;;;;9.82;2.50;;;;;;;;;;4935292;29;20027;-88
2020/12/20 05:35:55;;;;;;;11.13;2.42;;;;;;;;;;4928780;29;20110;-87
2020/12/20 05:38:21;;;;;;;17.77;2.78;;;;;;;;;;4928554;29;20035;-88
2020/12/20 05:40:47;;;;;;;17.77;3.10;;;;;;;;;;4929469;29;20022;-88
2020/12/20 05:43:14;;;;;;;13.77;2.65;;;;;;;;;;4918152;29;20103;-87
2020/12/20 05:45:39;;;;;;;11.35;2.70;;;;;;;;;;4917941;29;20027;-89
2020/12/20 05:48:15;;;;;;;16.70;2.92;;;;;;;;;;4918417;29;20019;-89
2020/12/20 05:50:47;;;;;;;15.07;2.53;;;;;;;;;;4918104;29;20100;-88
2020/12/20 05:53:12;;;;;;;15.63;2.72;;;;;;;;;;4918441;29;20016;-88
2020/12/20 05:55:38;;;;;;;14.90;2.97;;;;;;;;;;4918737;29;20115;-89
2020/12/20 05:58:08;;;;;;;14.13;2.70;;;;;;;;;;4904976;29;20667;-88
2020/12/20 06:00:33;;;;;;;13.75;2.55;;;;;;;;;;4917211;29;20110;-89
2020/12/20 06:02:59;;;;;;;16.50;3.42;;;;;;;;;;4918112;29;20058;-89
2020/12/20 06:05:27;;;;;;;14.18;4.00;;;;;;;;;;4935409;29;20079;-89
2020/12/20 06:07:55;;;;;;;17.40;2.43;;;;;;;;;;4935243;29;20020;-88
2020/12/20 06:10:21;;;;;;;12.52;2.33;;;;;;;;;;4916957;29;20101;-88
2020/12/20 06:12:48;;;;;;;13.05;2.28;;;;;;;;;;4918096;29;20229;-89
2020/12/20 06:15:18;;;;;;;8.55;2.20;;;;;;;;;;4917628;29;20023;-88
2020/12/20 06:17:43;;;;;;;10.35;2.30;;;;;;;;;;4912716;29;20024;-89
2020/12/20 06:20:13;;;;;;;16.33;3.00;;;;;;;;;;4926865;29;20030;-89
2020/12/20 06:22:39;;;;;;;13.80;2.40;;;;;;;;;;4917624;29;20031;-89
2020/12/20 06:25:07;;;;;;;16.58;2.85;;;;;;;;;;4934772;29;20020;-89
2020/12/20 06:27:33;;;;;;;14.30;2.47;;;;;;;;;;4935351;29;20083;-89
2020/12/20 06:29:59;;;;;;;14.93;2.25;;;;;;;;;;4934969;29;20032;-89
2020/12/20 06:32:48;;;;;;;12.25;2.45;;;;;;;;;;4916693;29;20024;-89
2020/12/20 06:35:19;;;;;;;7.78;1.88;;;;;;;;;;4907219;29;20031;-89
2020/12/20 06:37:45;;;;;;;12.53;1.93;;;;;;;;;;4917833;29;20028;-89
2020/12/20 06:40:11;;;;;;;21.02;3.25;;;;;;;;;;4919566;29;20435;-89
2020/12/20 06:42:39;;;;;;;9.98;2.75;;;;;;;;;;4921722;29;20027;-89
2020/12/20 06:45:18;;;;;;;19.02;2.78;;;;;;;;;;4921573;29;20015;-89
2020/12/20 06:47:45;;;;;;;23.42;3.10;;;;;;;;;;4938804;29;20051;-88
2020/12/20 06:50:10;;;;;;;12.00;2.55;;;;;;;;;;4921500;29;20024;-89
2020/12/20 06:52:48;;;;;;;17.08;3.13;;;;;;;;;;4920892;29;20519;-89
2020/12/20 06:55:18;;;;;;;15.15;2.50;;;;;;;;;;4920606;29;20095;-88
2020/12/20 06:58:02;;;;;;;9.52;1.75;;;;;;;;;;4921325;29;20023;-89
2020/12/20 07:00:47;;;;;;;14.88;2.17;;;;;;;;;;4909046;29;20024;-89
2020/12/20 07:03:18;;;;;;;18.98;2.72;;;;;;;;;;4920976;29;20521;-88
2020/12/20 07:05:45;;;;;;;10.32;2.30;;;;;;;;;;4921249;29;20015;-89
2020/12/20 07:08:28;;;;;;;21.65;3.45;;;;;;;;;;4921196;29;20106;-88
2020/12/20 07:10:54;;;;;;;13.95;2.65;;;;;;;;;;4921182;29;20019;-88
2020/12/20 07:13:35;;;;;;;15.40;2.95;;;;;;;;;;4937956;29;20042;-89
2020/12/20 07:16:04;;;;;;;16.67;2.40;;;;;;;;;;4921103;29;20020;-88
2020/12/20 07:18:48;;;;;;;11.40;2.30;;;;;;;;;;4921062;29;20115;-89
2020/12/20 07:21:13;;;;;;;20.92;3.05;;;;;;;;;;4914798;29;20596;-88
2020/12/20 07:23:40;;;;;;;14.27;2.47;;;;;;;;;;4909702;29;20067;-89
2020/12/20 07:26:05;;;;;;;15.30;2.50;;;;;;;;;;4920761;29;20019;-89
2020/12/20 07:28:30;;;;;;;10.00;2.28;;;;;;;;;;4910982;29;20101;-88
2020/12/20 07:30:55;;;;;;;16.48;3.00;;;;;;;;;;4912391;29;20456;-90
2020/12/20 07:33:21;;;;;;;19.38;2.90;;;;;;;;;;4935268;29;20047;-89
2020/12/20 07:35:47;;;;;;;16.08;2.58;;;;;;;;;;4916813;29;20401;-86
2020/12/20 07:38:12;;;;;;;17.42;3.50;;;;;;;;;;4917466;29;20019;-88
2020/12/20 07:40:38;;;;;;;14.98;2.55;;;;;;;;;;4920107;29;20352;-88
2020/12/20 07:43:03;;;;;;;17.45;2.78;;;;;;;;;;4919180;29;20034;-88
2020/12/20 07:45:28;;;;;;;18.60;2.65;;;;;;;;;;4936102;29;20035;-88
2020/12/20 07:47:53;;;;;;;16.40;2.85;;;;;;;;;;4924133;29;20027;-89
2020/12/20 07:50:22;;;;;;;16.65;2.80;;;;;;;;;;4920709;29;20040;-88
2020/12/20 07:52:50;;;;;;;20.13;3.33;;;;;;;;;;4931405;29;20056;-88
2020/12/20 07:55:15;;;;;;;14.32;3.15;;;;;;;;;;4919585;29;20082;-87
2020/12/20 07:57:48;;;;;;;23.38;4.05;;;;;;;;;;4936556;29;20020;-89
2020/12/20 08:00:14;;;;;;;23.27;3.70;;;;;;;;;;4918712;29;20643;-88
2020/12/20 08:02:39;;;;;;;19.38;3.40;;;;;;;;;;4923791;29;20043;-88
2020/12/20 08:05:05;;;;;;;15.10;3.58;;;;;;;;;;4906935;29;20353;-88
2020/12/20 08:07:30;;;;;;;11.57;2.50;;;;;;;;;;4937497;29;20034;-88
2020/12/20 08:09:55;;;;;;;11.18;2.80;;;;;;;;;;4920106;29;20035;-88
2020/12/20 08:12:21;;;;;;;17.48;2.72;;;;;;;;;;4920006;29;20030;-89
2020/12/20 08:14:46;;;;;;;19.40;3.73;;;;;;;;;;4917914;29;20030;-88
2020/12/20 08:17:18;;;;;;;24.03;4.90;;;;;;;;;;4914403;29;20767;-80
2020/12/20 08:19:43;;;;;;;;;;;;;;;;;;4918506;29;20511;-81
2020/12/20 08:22:13;;;;;;;19.00;3.87;;;;;;;;;;4914540;29;20009;-80
2020/12/20 08:24:42;;;;;;;24.83;4.40;;;;;;;;;;4910322;29;20587;-80
2020/12/20 08:27:22;;;;;;;19.30;5.00;;;;;;;;;;4929412;29;20089;-80
2020/12/20 08:29:49;;;;;;;25.83;6.07;;;;;;;;;;4916124;29;20130;-80
2020/12/20 08:32:20;;;;;;;27.55;6.07;;;;;;;;;;4917199;29;20105;-81
2020/12/20 08:34:45;;;;;;;24.73;4.33;;;;;;;;;;4932867;29;20019;-80
2020/12/20 08:37:15;;;;;;;11.60;3.03;;;;;;;;;;4913599;29;20162;-81
2020/12/20 08:39:40;;;;;;;23.63;4.82;;;;;;;;;;4916021;29;20023;-81
2020/12/20 08:42:12;;;;;;;19.77;4.40;;;;;;;;;;4915442;29;20023;-80
2020/12/20 08:44:45;;;;;;;18.63;3.75;;;;;;;;;;4926485;29;20027;-81
2020/12/20 08:47:17;;;;;;;31.10;5.00;;;;;;;;;;4916726;29;20035;-80
2020/12/20 08:49:56;;;;;;;17.80;4.03;;;;;;;;;;4913973;29;20016;-80
2020/12/20 08:52:21;;;;;;;21.83;4.00;;;;;;;;;;4928975;29;20066;-81
2020/12/20 08:54:47;;;;;;;11.77;3.20;;;;;;;;;;4918172;29;20047;-80
2020/12/20 08:57:13;;;;;;;16.87;3.30;;;;;;;;;;4935050;29;20023;-80
2020/12/20 08:59:42;;;;;;;25.93;4.07;;;;;;;;;;4918447;29;20024;-80
2020/12/20 09:02:08;;;;;;;13.38;2.35;;;;;;;;;;4933596;29;20071;-80
2020/12/20 09:04:35;;;;;;;15.13;2.33;;;;;;;;;;4917519;29;20051;-81
2020/12/20 09:07:03;;;;;;;19.48;2.50;;;;;;;;;;4933531;29;20079;-79
2020/12/20 09:09:28;;;;;;;12.95;2.03;;;;;;;;;;4932690;29;20118;-81
2020/12/20 09:11:53;;;;;;;15.48;2.75;;;;;;;;;;4916610;29;20578;-80
2020/12/20 09:14:18;;;;;;;15.55;2.47;;;;;;;;;;4916772;29;20027;-81
2020/12/20 09:16:44;;;;;;;16.20;2.65;;;;;;;;;;4925801;29;20364;-81
2020/12/20 09:19:13;;;;;;;22.70;2.97;;;;;;;;;;4917208;29;21537;-80
2020/12/20 09:21:38;;;;;;;16.60;2.40;;;;;;;;;;4916573;29;20027;-81
2020/12/20 09:24:03;;;;;;;17.77;2.38;;;;;;;;;;4912971;29;20110;-80
2020/12/20 09:26:28;;;;;;;20.77;3.00;;;;;;;;;;4915019;29;20353;-81
2020/12/20 09:28:53;;;;;;;14.40;2.60;;;;;;;;;;4917396;29;20035;-81
2020/12/20 09:31:20;;;;;;;13.40;2.47;;;;;;;;;;4910276;29;20059;-81
2020/12/20 09:33:49;;;;;;;16.20;2.70;;;;;;;;;;4903152;29;20036;-81
2020/12/20 09:36:24;;;;;;;19.23;3.53;;;;;;;;;;4934722;29;20355;-79
2020/12/20 09:38:50;;;;;;;18.83;3.17;;;;;;;;;;4927383;29;20374;-81
2020/12/20 09:41:15;;;;;;;17.40;3.10;;;;;;;;;;4917200;29;20031;-82
2020/12/20 09:43:41;;;;;;;14.95;3.15;;;;;;;;;;4934556;29;20016;-81
2020/12/20 09:46:07;;;;;;;14.20;2.60;;;;;;;;;;4915955;29;20076;-80
2020/12/20 09:48:32;;;;;;;20.17;2.75;;;;;;;;;;4908401;29;20063;-81
2020/12/20 09:50:57;;;;;;;19.88;3.22;;;;;;;;;;4913618;29;20043;-81
2020/12/20 09:53:22;;;;;;;17.30;3.20;;;;;;;;;;4917094;29;20114;-81
2020/12/20 09:55:48;;;;;;;14.15;3.25;;;;;;;;;;4917928;29;20467;-83
2020/12/20 09:58:14;;;;;;;15.43;2.45;;;;;;;;;;4913561;29;20110;-83
2020/12/20 10:00:39;;;;;;;22.65;3.88;;;;;;;;;;4927052;29;20095;-80
2020/12/20 10:03:06;;;;;;;17.88;3.22;;;;;;;;;;4916032;29;20015;-81
2020/12/20 10:05:31;;;;;;;8.63;2.15;;;;;;;;;;4925758;29;20114;-81
2020/12/20 10:07:56;;;;;;;12.13;2.55;;;;;;;;;;4906890;29;20107;-81
2020/12/20 10:10:22;;;;;;;13.20;2.42;;;;;;;;;;4926532;29;20415;-81
2020/12/20 10:12:47;;;;;;;6.45;1.55;;;;;;;;;;4916675;29;20019;-81
2020/12/20 10:15:12;;;;;;;14.82;2.83;;;;;;;;;;4915254;29;20027;-81
2020/12/20 10:17:37;;;;;;;16.75;3.03;;;;;;;;;;4916800;29;20030;-80
2020/12/20 10:20:03;;;;;;;15.15;3.10;;;;;;;;;;4909199;29;20370;-81
2020/12/20 10:22:28;;;;;;;16.95;2.85;;;;;;;;;;4900395;29;20030;-81
2020/12/20 10:24:53;;;;;;;13.30;2.10;;;;;;;;;;4913654;29;20068;-82
2020/12/20 10:27:20;;;;;;;12.48;2.25;;;;;;;;;;4928358;29;20150;-81
2020/12/20 10:29:45;;;;;;;8.30;2.10;;;;;;;;;;4910937;29;20105;-80
2020/12/20 10:32:10;;;;;;;21.38;3.65;;;;;;;;;;4915523;29;20055;-81
2020/12/20 10:34:35;;;;;;;8.82;1.90;;;;;;;;;;4921091;29;20023;-81
2020/12/20 10:37:01;;;;;;;17.77;2.50;;;;;;;;;;4911655;29;20027;-83
2020/12/20 10:39:26;;;;;;;16.70;2.13;;;;;;;;;;4915488;29;20471;-83
2020/12/20 10:41:52;;;;;;;8.27;1.88;;;;;;;;;;4916367;29;20305;-83
2020/12/20 10:44:19;;;;;;;15.38;2.47;;;;;;;;;;4933284;29;20020;-83
2020/12/20 10:46:47;;;;;;;16.05;3.10;;;;;;;;;;4903462;29;20032;-83
2020/12/20 10:49:12;;;;;;;17.15;3.00;;;;;;;;;;4914893;29;20023;-83
2020/12/20 10:51:37;;;;;;;17.50;2.88;;;;;;;;;;4930814;29;20035;-83
2020/12/20 10:54:02;;;;;;;6.20;2.03;;;;;;;;;;4915302;29;20028;-83
2020/12/20 10:56:27;;;;;;;14.45;2.67;;;;;;;;;;4915826;29;20510;-84
2020/12/20 10:58:53;;;;;;;7.68;2.08;;;;;;;;;;4915331;29;20032;-83
2020/12/20 11:01:18;;;;;;;5.10;1.02;;;;;;;;;;4914953;29;20034;-83
2020/12/20 11:03:44;;;;;;;19.40;3.30;;;;;;;;;;4932347;29;20094;-83
2020/12/20 11:06:10;;;;;;;15.50;3.28;;;;;;;;;;4910126;29;20024;-82
2020/12/20 11:08:35;;;;;;;17.77;3.10;;;;;;;;;;4914650;29;20118;-83
2020/12/20 11:11:00;;;;;;;19.50;3.28;;;;;;;;;;4915834;29;20450;-83
2020/12/20 11:13:25;;;;;;;18.27;2.70;;;;;;;;;;4915010;29;20054;-84
2020/12/20 11:15:51;;;;;;;3.03;0.85;;;;;;;;;;4915940;29;20455;-84
2020/12/20 11:18:16;;;;;;;13.30;2.90;;;;;;;;;;4914439;29;20491;-83
2020/12/20 11:20:41;;;;;;;16.60;2.75;;;;;;;;;;4905477;29;20024;-83
2020/12/20 11:23:06;;;;;;;12.68;2.83;;;;;;;;;;4903572;29;20028;-84
2020/12/20 11:25:32;;;;;;;19.73;2.78;;;;;;;;;;4908892;29;20826;-84
2020/12/20 11:27:57;;;;;;;12.73;2.33;;;;;;;;;;4918756;29;20079;-83
2020/12/20 11:30:23;;;;;;;20.38;2.88;;;;;;;;;;4936687;29;20075;-83
2020/12/20 11:32:48;;;;;;;9.02;1.25;;;;;;;;;;4914420;29;20031;-83
2020/12/20 11:35:16;;;;;;;6.78;0.90;;;;;;;;;;4919393;29;20033;-83
2020/12/20 11:37:41;;;;;;;9.82;1.48;;;;;;;;;;4918832;29;20568;-83
2020/12/20 11:40:06;;;;;;;23.35;2.58;;;;;;;;;;4918344;29;20061;-83
2020/12/20 11:42:31;;;;;;;18.55;1.95;;;;;;;;;;4918942;29;20035;-83
2020/12/20 11:44:57;;;;;;;6.93;1.42;;;;;;;;;;4919474;29;20463;-83
2020/12/20 11:47:22;;;;;;;15.32;2.60;;;;;;;;;;4917711;29;20028;-83
2020/12/20 11:49:47;;;;;;;17.20;2.25;;;;;;;;;;4919284;29;20030;-84
2020/12/20 11:52:12;;;;;;;22.05;2.65;;;;;;;;;;4918900;29;20026;-83
2020/12/20 11:54:37;;;;;;;17.23;2.47;;;;;;;;;;4935870;29;20499;-83
2020/12/20 11:57:02;;;;;;;14.63;2.00;;;;;;;;;;4935980;29;20046;-83
2020/12/20 11:59:29;;;;;;;9.25;1.90;;;;;;;;;;4918077;29;20038;-82
2020/12/20 12:01:58;;;;;;;13.43;2.65;;;;;;;;;;4917583;29;20024;-83
2020/12/20 12:04:23;;;;;;;11.02;2.20;;;;;;;;;;4915850;29;20058;-83
2020/12/20 12:06:50;;;;;;;21.83;3.10;;;;;;;;;;4908008;29;20444;-83
2020/12/20 12:09:15;;;;;;;13.43;3.25;;;;;;;;;;4936434;29;20023;-83
2020/12/20 12:11:40;;;;;;;5.50;1.27;;;;;;;;;;4929939;29;20018;-83
2020/12/20 12:14:05;;;;;;;17.73;2.78;;;;;;;;;;4918118;29;20069;-84
2020/12/20 12:16:31;;;;;;;19.20;3.35;;;;;;;;;;4928021;29;20452;-83
2020/12/20 12:18:56;;;;;;;21.17;2.72;;;;;;;;;;4906560;29;20023;-83
2020/12/20 12:21:21;;;;;;;22.23;2.63;;;;;;;;;;4904037;29;20460;-83
2020/12/20 12:23:46;;;;;;;3.15;1.40;;;;;;;;;;4915527;29;20044;-84
2020/12/20 12:26:12;;;;;;;18.45;2.78;;;;;;;;;;4923846;29;20099;-84
2020/12/20 12:28:37;;;;;;;13.88;2.65;;;;;;;;;;4916890;29;20115;-83
2020/12/20 12:31:03;;;;;;;10.13;2.30;;;;;;;;;;4914639;29;20131;-83
2020/12/20 12:33:28;;;;;;;17.30;2.33;;;;;;;;;;4916600;29;20106;-83
2020/12/20 12:35:54;;;;;;;23.27;2.95;;;;;;;;;;4917616;29;20501;-83
2020/12/20 12:38:20;;;;;;;8.15;1.95;;;;;;;;;;4915316;29;20027;-82
2020/12/20 12:40:45;;;;;;;21.88;3.53;;;;;;;;;;4917179;29;20486;-83
2020/12/20 12:43:10;;;;;;;22.20;3.70;;;;;;;;;;4917259;29;20016;-83
2020/12/20 12:45:35;;;;;;;18.30;2.78;;;;;;;;;;4918009;29;20024;-82
2020/12/20 12:48:01;;;;;;;18.33;2.10;;;;;;;;;;4912452;29;20365;-82
2020/12/20 12:50:26;;;;;;;18.02;2.53;;;;;;;;;;4933538;29;20086;-83
2020/12/20 12:52:51;;;;;;;12.25;2.42;;;;;;;;;;4912892;29;20028;-82
2020/12/20 12:55:17;;;;;;;15.90;2.78;;;;;;;;;;4917168;29;20032;-82
2020/12/20 12:57:42;;;;;;;16.60;3.03;;;;;;;;;;4915512;29;20167;-83
2020/12/20 13:00:07;;;;;;;16.38;2.40;;;;;;;;;;4916294;29;20038;-82
2020/12/20 13:02:35;;;;;;;19.27;2.70;;;;;;;;;;4917462;29;20019;-83
2020/12/20 13:05:01;;;;;;;14.73;1.70;;;;;;;;;;4917448;29;20030;-83
2020/12/20 13:07:27;;;;;;;22.83;2.72;;;;;;;;;;4917485;29;20468;-82
2020/12/20 13:09:52;;;;;;;17.77;2.63;;;;;;;;;;4934404;29;20031;-83
2020/12/20 13:12:17;;;;;;;20.35;2.80;;;;;;;;;;4913139;29;20031;-83
2020/12/20 13:14:43;;;;;;;12.70;2.40;;;;;;;;;;4912301;29;20170;-83
2020/12/20 13:17:08;;;;;;;15.68;3.03;;;;;;;;;;4927695;29;20115;-83
2020/12/20 13:19:33;;;;;;;24.42;3.03;;;;;;;;;;4933933;29;20478;-83
2020/12/20 13:21:58;;;;;;;18.88;2.70;;;;;;;;;;4921554;29;20107;-83
2020/12/20 13:24:24;;;;;;;17.25;2.03;;;;;;;;;;4919993;29;20019;-83
2020/12/20 13:26:49;;;;;;;17.05;2.30;;;;;;;;;;4926154;29;20020;-83
2020/12/20 13:29:14;;;;;;;12.98;2.45;;;;;;;;;;4917503;29;20114;-83
2020/12/20 13:31:39;;;;;;;22.67;2.42;;;;;;;;;;4934694;29;20031;-83
2020/12/20 13:34:05;;;;;;;13.02;2.47;;;;;;;;;;4917239;29;20079;-83
2020/12/20 13:36:30;;;;;;;14.55;2.53;;;;;;;;;;4917249;29;20050;-83
2020/12/20 13:38:56;;;;;;;4.28;0.85;;;;;;;;;;4917103;29;20119;-83
2020/12/20 13:41:22;;;;;;;13.93;2.05;;;;;;;;;;4917079;29;20045;-84
2020/12/20 13:43:47;;;;;;;21.80;2.33;;;;;;;;;;4934113;29;20020;-83
2020/12/20 13:46:12;;;;;;;20.52;2.35;;;;;;;;;;4916610;29;20062;-83
2020/12/20 13:48:37;;;;;;;18.20;2.30;;;;;;;;;;4934150;29;20131;-83
2020/12/20 13:51:04;;;;;;;22.52;2.65;;;;;;;;;;4913405;29;20442;-83
2020/12/20 13:53:29;;;;;;;16.92;2.22;;;;;;;;;;4931270;29;20086;-83
2020/12/20 13:55:54;;;;;;;6.50;1.25;;;;;;;;;;4913151;29;20015;-83
2020/12/20 13:58:19;;;;;;;15.40;3.20;;;;;;;;;;4933233;29;20356;-86
2020/12/20 14:00:45;;;;;;;23.48;3.47;;;;;;;;;;4917316;29;20035;-84
2020/12/20 14:03:10;;;;;;;14.13;2.47;;;;;;;;;;4915983;29;20100;-86
2020/12/20 14:05:41;;;;;;;12.10;2.13;;;;;;;;;;4916779;29;20034;-85
2020/12/20 14:08:07;;;;;;;5.60;0.98;;;;;;;;;;4916587;29;20027;-84
2020/12/20 14:10:33;;;;;;;14.88;1.92;;;;;;;;;;4933036;29;20036;-85
2020/12/20 14:12:58;;;;;;;21.58;2.40;;;;;;;;;;4923238;29;20097;-83
2020/12/20 14:15:24;;;;;;;21.45;2.75;;;;;;;;;;4928838;29;20023;-84
2020/12/20 14:17:50;;;;;;;7.65;1.30;;;;;;;;;;4916610;29;20036;-84
2020/12/20 14:20:15;;;;;;;16.17;2.17;;;;;;;;;;4933166;29;20020;-82
2020/12/20 14:22:40;;;;;;;11.93;2.42;;;;;;;;;;4915233;29;20031;-82
2020/12/20 14:25:06;;;;;;;9.88;1.88;;;;;;;;;;4913411;29;20431;-83
2020/12/20 14:27:33;;;;;;;22.38;3.10;;;;;;;;;;4933770;29;20027;-83